Time;durP1;ratioP1;P1;durP2;ratioP2;P2;SDS_P1;SDS_P2;PMS_P1;PMS_P2;Temp;Humidity;BMP_temperature;BMP_pressure;BME280_temperature;BME280_humidity;BME280_pressure;Samples;Min_cycle;Max_cycle;Signal;HPM_P1;HPM_P2
2023/08/16 00:00:51;;;;;;;4.37;2.80;;;16.40;99.90;;;;;;5117517;28;20263;-53
2023/08/16 00:03:17;;;;;;;9.80;3.30;;;16.40;99.90;;;;;;5117641;28;20192;-54
2023/08/16 00:05:43;;;;;;;4.10;2.73;;;16.30;99.90;;;;;;5117811;28;20417;-53
2023/08/16 00:08:09;;;;;;;5.80;3.67;;;16.30;99.90;;;;;;5117206;28;20543;-54
2023/08/16 00:10:34;;;;;;;7.83;4.03;;;16.30;99.90;;;;;;5117619;28;20189;-55
2023/08/16 00:13:00;;;;;;;6.90;3.07;;;16.30;1.00;;;;;;5117559;28;20591;-53
2023/08/16 00:15:26;;;;;;;8.87;3.60;;;16.20;1.00;;;;;;5117195;28;20188;-54
2023/08/16 00:17:52;;;;;;;10.10;3.50;;;16.20;1.00;;;;;;5117610;28;20186;-53
2023/08/16 00:20:19;;;;;;;7.03;3.70;;;16.10;99.90;;;;;;5117133;28;20437;-54
2023/08/16 00:22:45;;;;;;;12.07;4.47;;;16.10;99.90;;;;;;5117047;28;20812;-53
2023/08/16 00:25:11;;;;;;;8.43;3.33;;;16.10;1.00;;;;;;5117575;28;20433;-54
2023/08/16 00:27:37;;;;;;;12.50;3.73;;;16.10;39.10;;;;;;5117345;28;20268;-53
2023/08/16 00:30:04;;;;;;;7.93;4.00;;;16.10;73.80;;;;;;5117464;28;20333;-54
2023/08/16 00:32:30;;;;;;;8.87;3.50;;;16.10;99.90;;;;;;5116812;28;20423;-54
2023/08/16 00:34:55;;;;;;;7.30;3.97;;;16.10;84.90;;;;;;5116892;28;20414;-54
2023/08/16 00:37:21;;;;;;;6.00;3.67;;;16.00;99.90;;;;;;5117024;28;20212;-54
2023/08/16 00:39:46;;;;;;;9.17;3.83;;;16.00;99.90;;;;;;5117194;28;20179;-53
2023/08/16 00:42:12;;;;;;;7.30;3.23;;;16.00;99.90;;;;;;5116815;28;20219;-52
2023/08/16 00:44:38;;;;;;;10.97;3.80;;;16.00;1.00;;;;;;5116717;28;20259;-53
2023/08/16 00:47:04;;;;;;;6.37;3.83;;;15.90;99.90;;;;;;5116847;28;20171;-54
2023/08/16 00:49:30;;;;;;;7.27;3.70;;;15.90;1.00;;;;;;5117118;28;20292;-53
2023/08/16 00:51:57;;;;;;;7.63;4.20;;;15.90;1.00;;;;;;5116965;28;20414;-53
2023/08/16 00:54:22;;;;;;;5.53;3.27;;;15.80;1.00;;;;;;5117010;28;20409;-54
2023/08/16 00:56:48;;;;;;;7.47;3.63;;;15.80;1.00;;;;;;5116826;28;20927;-52
2023/08/16 00:59:14;;;;;;;8.50;4.13;;;15.70;1.00;;;;;;5116684;28;20681;-53
2023/08/16 01:01:42;;;;;;;11.67;4.30;;;15.70;99.90;;;;;;5116404;28;20182;-54
2023/08/16 01:04:08;;;;;;;11.50;4.43;;;15.70;99.90;;;;;;5116756;28;20422;-53
2023/08/16 01:06:34;;;;;;;6.37;4.03;;;15.60;99.90;;;;;;5116585;28;20413;-54
2023/08/16 01:08:59;;;;;;;9.20;3.80;;;15.60;1.00;;;;;;5116274;28;20208;-54
2023/08/16 01:11:41;;;;;;;6.50;3.93;;;15.60;43.90;;;;;;5116421;28;20194;-53
2023/08/16 01:14:26;;;;;;;14.63;4.10;;;15.60;99.90;;;;;;5116096;28;20161;-54
2023/08/16 01:16:53;;;;;;;9.30;4.03;;;15.60;99.90;;;;;;5116324;28;20398;-53
2023/08/16 01:19:29;;;;;;;8.67;3.50;;;15.50;99.90;;;;;;5116259;28;20425;-53
2023/08/16 01:22:31;;;;;;;10.10;4.43;;;15.50;1.00;;;;;;5115746;28;20462;-52
2023/08/16 01:25:08;;;;;;;9.20;3.93;;;15.50;1.00;;;;;;5085226;28;20552;-52
2023/08/16 01:27:35;;;;;;;9.10;4.10;;;15.40;1.00;;;;;;5115941;28;20417;-52
2023/08/16 01:30:06;;;;;;;5.23;4.00;;;15.40;1.00;;;;;;5115663;28;20983;-52
2023/08/16 01:32:32;;;;;;;7.63;4.10;;;15.40;1.00;;;;;;5115686;28;20410;-53
2023/08/16 01:34:58;;;;;;;12.43;3.90;;;15.40;1.00;;;;;;5116018;28;20519;-52
2023/08/16 01:37:24;;;;;;;9.23;4.03;;;15.40;1.00;;;;;;5115583;28;20941;-53
2023/08/16 01:39:51;;;;;;;7.70;4.27;;;15.30;1.00;;;;;;5115507;28;20208;-53
2023/08/16 01:42:17;;;;;;;7.67;4.13;;;15.30;1.00;;;;;;5115444;28;20425;-51
2023/08/16 01:44:47;;;;;;;16.33;4.33;;;15.30;63.00;;;;;;5115833;28;20414;-53
2023/08/16 01:47:14;;;;;;;12.23;4.87;;;15.20;99.90;;;;;;5115679;28;20450;-52
2023/08/16 01:49:41;;;;;;;12.60;4.70;;;15.20;99.90;;;;;;5115230;28;20457;-52
2023/08/16 01:52:07;;;;;;;16.30;4.83;;;15.20;99.90;;;;;;5115595;28;20442;-52
2023/08/16 01:54:33;;;;;;;11.40;5.03;;;15.20;99.90;;;;;;5114623;28;20771;-53
2023/08/16 01:56:58;;;;;;;13.53;5.50;;;15.20;99.90;;;;;;5115579;28;20188;-53
2023/08/16 01:59:24;;;;;;;6.97;4.70;;;15.20;99.90;;;;;;5115713;28;20237;-52
2023/08/16 02:01:50;;;;;;;9.63;5.10;;;15.20;99.90;;;;;;5115519;28;20271;-53
2023/08/16 02:04:15;;;;;;;13.07;6.03;;;15.10;99.90;;;;;;5115062;28;20176;-53
2023/08/16 02:06:41;;;;;;;8.30;5.43;;;15.10;99.90;;;;;;5115138;28;20212;-54
2023/08/16 02:09:06;;;;;;;19.13;6.50;;;15.10;99.90;;;;;;5115493;28;20331;-52
2023/08/16 02:11:32;;;;;;;11.20;6.33;;;15.10;99.90;;;;;;5115212;28;20184;-52
2023/08/16 02:13:58;;;;;;;12.63;6.67;;;15.10;99.90;;;;;;5115219;28;20183;-52
2023/08/16 02:16:24;;;;;;;12.20;6.67;;;15.10;99.90;;;;;;5115127;28;20172;-53
2023/08/16 02:18:51;;;;;;;11.43;6.47;;;15.10;99.90;;;;;;5115336;28;20191;-52
2023/08/16 02:21:17;;;;;;;9.53;5.97;;;15.10;99.90;;;;;;5114868;28;20522;-52
2023/08/16 02:23:43;;;;;;;12.13;5.67;;;15.10;99.90;;;;;;5114960;28;20402;-53
2023/08/16 02:26:08;;;;;;;15.90;6.23;;;15.10;99.90;;;;;;5115030;28;20180;-52
2023/08/16 02:28:34;;;;;;;11.17;5.60;;;15.10;99.90;;;;;;5114866;28;20211;-52
2023/08/16 02:31:05;;;;;;;11.57;6.30;;;15.10;99.90;;;;;;5114985;28;20238;-52
2023/08/16 02:33:31;;;;;;;12.57;6.30;;;15.10;99.90;;;;;;5114547;28;20183;-52
2023/08/16 02:35:57;;;;;;;14.70;6.30;;;15.10;99.90;;;;;;5114896;28;20418;-52
2023/08/16 02:38:23;;;;;;;13.70;6.23;;;15.10;99.90;;;;;;5114502;28;20418;-52
2023/08/16 02:40:48;;;;;;;8.80;5.40;;;15.10;99.90;;;;;;5114374;28;20418;-53
2023/08/16 02:43:14;;;;;;;13.23;6.37;;;15.10;99.90;;;;;;5114635;28;20210;-52
2023/08/16 02:45:39;;;;;;;13.03;5.93;;;15.10;99.90;;;;;;5114620;28;20174;-52
2023/08/16 02:48:05;;;;;;;15.67;6.53;;;15.00;99.90;;;;;;5114457;28;20191;-52
2023/08/16 02:50:31;;;;;;;14.43;6.70;;;15.00;99.90;;;;;;5114511;28;20236;-51
2023/08/16 02:52:56;;;;;;;20.10;6.70;;;15.00;99.90;;;;;;5114670;28;20210;-52
2023/08/16 02:55:22;;;;;;;19.63;7.83;;;15.00;99.90;;;;;;5114256;28;20172;-51
2023/08/16 02:57:48;;;;;;;14.73;7.30;;;15.00;99.90;;;;;;5114221;28;20183;-51
2023/08/16 03:00:14;;;;;;;18.17;6.80;;;15.00;99.90;;;;;;5114647;28;20242;-51
2023/08/16 03:02:39;;;;;;;18.33;7.27;;;15.00;99.90;;;;;;5114206;28;20690;-51
2023/08/16 03:05:06;;;;;;;15.37;7.50;;;15.00;99.90;;;;;;5113589;28;20454;-51
2023/08/16 03:07:32;;;;;;;12.53;6.20;;;15.00;99.90;;;;;;5114147;28;20270;-52
2023/08/16 03:09:58;;;;;;;14.43;7.20;;;15.00;99.90;;;;;;5114253;28;20544;-52
2023/08/16 03:12:23;;;;;;;21.03;8.10;;;15.00;99.90;;;;;;5114313;28;21008;-52
2023/08/16 03:14:49;;;;;;;23.23;7.60;;;14.90;99.90;;;;;;5114271;28;20180;-51
2023/08/16 03:17:15;;;;;;;11.30;7.20;;;14.90;99.90;;;;;;5114027;28;20179;-50
2023/08/16 03:19:40;;;;;;;21.10;7.93;;;14.90;99.90;;;;;;5114244;28;20214;-53
2023/08/16 03:22:07;;;;;;;17.33;7.90;;;14.90;99.90;;;;;;5113931;28;20621;-51
2023/08/16 03:24:33;;;;;;;16.17;7.23;;;14.90;99.90;;;;;;5114625;28;20198;-51
2023/08/16 03:26:58;;;;;;;10.70;8.23;;;14.80;99.90;;;;;;5114326;28;20750;-52
2023/08/16 03:29:24;;;;;;;18.63;8.23;;;14.80;99.90;;;;;;5114452;28;20460;-52
2023/08/16 03:31:49;;;;;;;12.57;8.13;;;14.80;99.90;;;;;;5114344;28;20590;-52
2023/08/16 03:34:16;;;;;;;15.63;7.73;;;14.70;99.90;;;;;;5114427;28;20180;-51
2023/08/16 03:36:41;;;;;;;16.20;8.30;;;14.70;99.90;;;;;;5113962;28;20660;-51
2023/08/16 03:39:07;;;;;;;14.40;8.77;;;14.70;99.90;;;;;;5114316;28;20471;-51
2023/08/16 03:41:33;;;;;;;19.23;7.50;;;14.70;99.90;;;;;;5114381;28;20176;-53
2023/08/16 03:44:00;;;;;;;24.77;7.87;;;14.60;99.90;;;;;;5113993;28;20198;-53
2023/08/16 03:46:25;;;;;;;25.10;9.43;;;14.70;99.90;;;;;;5114394;28;20410;-51
2023/08/16 03:48:51;;;;;;;18.27;8.13;;;14.60;99.90;;;;;;5113765;28;20516;-51
2023/08/16 03:51:17;;;;;;;13.20;8.00;;;14.60;99.90;;;;;;5113966;28;20188;-51
2023/08/16 03:53:42;;;;;;;20.47;8.80;;;14.60;99.90;;;;;;5113931;28;20866;-51
2023/08/16 03:56:08;;;;;;;22.33;10.20;;;14.60;99.90;;;;;;5113941;28;20263;-51
2023/08/16 03:58:33;;;;;;;17.17;9.07;;;14.60;99.90;;;;;;5113663;28;20184;-50
2023/08/16 04:00:59;;;;;;;23.50;9.80;;;14.70;99.90;;;;;;5113592;28;20180;-50
2023/08/16 04:03:25;;;;;;;21.77;10.50;;;14.70;99.90;;;;;;5113606;28;20209;-50
2023/08/16 04:05:50;;;;;;;20.53;9.57;;;14.70;99.90;;;;;;5114012;28;20176;-51
2023/08/16 04:08:16;;;;;;;26.13;11.20;;;14.70;99.90;;;;;;5113913;28;20207;-51
2023/08/16 04:10:41;;;;;;;18.03;10.67;;;14.70;99.90;;;;;;5113491;28;20712;-51
2023/08/16 04:13:07;;;;;;;21.43;10.93;;;14.70;99.90;;;;;;5113779;28;20217;-51
2023/08/16 04:15:32;;;;;;;26.33;10.43;;;14.70;99.90;;;;;;5113534;28;20640;-50
2023/08/16 04:17:58;;;;;;;21.97;11.30;;;14.60;99.90;;;;;;5115782;28;20180;-51
2023/08/16 04:20:24;;;;;;;19.67;10.73;;;14.60;99.90;;;;;;5117726;28;20188;-50
2023/08/16 04:22:51;;;;;;;22.53;10.80;;;14.60;99.90;;;;;;5116016;28;20775;-50
2023/08/16 04:25:17;;;;;;;26.03;11.47;;;14.60;99.90;;;;;;5116168;28;20643;-51
2023/08/16 04:27:42;;;;;;;15.03;9.47;;;14.60;99.90;;;;;;5116509;28;20429;-51
2023/08/16 04:30:09;;;;;;;21.27;10.43;;;14.60;99.90;;;;;;5115694;28;20254;-50
2023/08/16 04:32:35;;;;;;;24.27;13.07;;;14.60;99.90;;;;;;5115767;28;20187;-51
2023/08/16 04:35:01;;;;;;;23.80;12.07;;;14.60;99.90;;;;;;5115659;28;20447;-50
2023/08/16 04:37:27;;;;;;;24.33;13.43;;;14.60;99.90;;;;;;5115903;28;20184;-50
2023/08/16 04:39:53;;;;;;;29.20;12.90;;;14.60;99.90;;;;;;5115718;28;20498;-49
2023/08/16 04:42:19;;;;;;;22.93;11.50;;;14.60;99.90;;;;;;5116160;28;20180;-49
2023/08/16 04:44:45;;;;;;;25.50;12.47;;;14.60;99.90;;;;;;5115918;28;20259;-50
2023/08/16 04:47:10;;;;;;;25.00;12.70;;;14.60;99.90;;;;;;5115804;28;20414;-50
2023/08/16 04:49:36;;;;;;;26.93;12.50;;;14.70;99.90;;;;;;5115779;28;20806;-50
2023/08/16 04:52:02;;;;;;;19.53;11.40;;;14.70;99.90;;;;;;5116023;28;20184;-49
2023/08/16 04:54:27;;;;;;;24.33;12.50;;;14.70;99.90;;;;;;5115588;28;20269;-51
2023/08/16 04:56:53;;;;;;;28.33;13.80;;;14.70;99.90;;;;;;5115864;28;20184;-50
2023/08/16 04:59:19;;;;;;;35.93;13.87;;;14.80;99.90;;;;;;5115587;28;20184;-50
2023/08/16 05:01:44;;;;;;;20.23;13.17;;;14.80;99.90;;;;;;5115669;28;20326;-50
2023/08/16 05:04:10;;;;;;;24.67;12.50;;;14.90;99.90;;;;;;5115517;28;20172;-51
2023/08/16 05:06:36;;;;;;;32.30;13.87;;;14.90;99.90;;;;;;5115998;28;20271;-51
2023/08/16 05:09:03;;;;;;;30.73;15.03;;;15.00;99.90;;;;;;5115810;28;20519;-51
2023/08/16 05:11:30;;;;;;;39.70;14.83;;;15.10;99.90;;;;;;5115000;28;20424;-50
2023/08/16 05:13:55;;;;;;;24.97;13.70;;;15.20;99.90;;;;;;5115444;28;20479;-51
2023/08/16 05:16:21;;;;;;;20.10;12.60;;;15.20;99.90;;;;;;5115157;28;20421;-51
2023/08/16 05:18:47;;;;;;;30.97;14.53;;;15.30;99.90;;;;;;5114868;28;20211;-50
2023/08/16 05:21:12;;;;;;;25.00;15.45;;;15.40;99.90;;;;;;5077225;28;1064885;-51
2023/08/16 05:23:38;;;;;;;40.57;16.90;;;15.50;99.90;;;;;;5116545;28;20639;-51
2023/08/16 05:26:03;;;;;;;25.30;13.93;;;15.50;99.90;;;;;;5115999;28;20179;-51
2023/08/16 05:28:29;;;;;;;25.77;14.57;;;15.60;99.90;;;;;;5115079;28;20181;-51
2023/08/16 05:30:55;;;;;;;26.87;15.17;;;15.60;99.90;;;;;;5116003;28;20580;-52
2023/08/16 05:33:20;;;;;;;36.67;16.00;;;15.70;99.90;;;;;;5115945;28;20180;-51
2023/08/16 05:35:46;;;;;;;25.93;14.50;;;15.80;99.90;;;;;;5115661;28;20647;-51
2023/08/16 05:38:11;;;;;;;25.20;14.33;;;15.90;99.90;;;;;;5115562;28;20181;-52
2023/08/16 05:40:37;;;;;;;29.27;14.37;;;16.00;99.90;;;;;;5115805;28;20183;-52
2023/08/16 05:43:03;;;;;;;33.70;15.63;;;16.10;99.90;;;;;;5115511;28;20198;-51
2023/08/16 05:45:30;;;;;;;24.87;15.27;;;16.20;99.90;;;;;;5115694;28;20188;-52
2023/08/16 05:47:56;;;;;;;27.17;14.70;;;16.40;99.90;;;;;;5115899;28;20189;-51
2023/08/16 05:50:22;;;;;;;27.47;14.20;;;16.50;99.90;;;;;;5115292;28;20449;-50
2023/08/16 05:52:47;;;;;;;19.90;15.00;;;16.80;99.90;;;;;;5115564;28;20464;-52
2023/08/16 05:55:13;;;;;;;26.87;13.90;;;17.10;99.90;;;;;;5115651;28;20448;-53
2023/08/16 05:57:39;;;;;;;31.70;12.33;;;17.30;99.90;;;;;;5115315;28;20570;-52
2023/08/16 06:00:05;;;;;;;16.33;12.03;;;17.50;99.90;;;;;;5115640;28;20183;-53
2023/08/16 06:02:30;;;;;;;21.37;10.73;;;17.80;99.90;;;;;;5115363;28;20624;-53
2023/08/16 06:04:58;;;;;;;19.33;9.83;;;18.10;99.90;;;;;;5115082;28;20419;-53
2023/08/16 06:07:25;;;;;;;14.20;7.03;;;18.30;99.90;;;;;;5115612;28;20186;-52
2023/08/16 06:09:51;;;;;;;14.97;7.33;;;18.50;62.40;;;;;;5115034;28;20928;-53
2023/08/16 06:12:17;;;;;;;14.73;6.50;;;18.60;1.00;;;;;;5115275;28;20424;-53
2023/08/16 06:14:43;;;;;;;17.63;6.80;;;18.70;99.90;;;;;;5115110;28;20175;-53
2023/08/16 06:17:08;;;;;;;12.47;6.90;;;18.70;99.90;;;;;;5115250;28;20199;-53
2023/08/16 06:19:34;;;;;;;12.13;6.00;;;18.70;99.90;;;;;;5115364;28;20189;-53
2023/08/16 06:21:59;;;;;;;12.30;6.00;;;18.80;49.90;;;;;;5114749;28;20315;-53
2023/08/16 06:24:25;;;;;;;13.27;5.90;;;19.10;99.90;;;;;;5115108;28;20580;-53
2023/08/16 06:26:51;;;;;;;9.07;5.43;;;19.40;1.00;;;;;;5114831;28;20268;-53
2023/08/16 06:29:16;;;;;;;14.00;6.57;;;19.50;1.00;;;;;;5115120;28;20216;-53
2023/08/16 06:31:42;;;;;;;10.20;5.20;;;19.50;99.90;;;;;;5114873;28;20191;-53
2023/08/16 06:34:07;;;;;;;11.77;5.00;;;19.70;42.00;;;;;;5114485;28;20170;-53
2023/08/16 06:36:33;;;;;;;12.83;5.60;;;20.00;99.90;;;;;;5114712;28;20208;-54
2023/08/16 06:38:59;;;;;;;11.23;4.10;;;20.20;1.00;;;;;;5114580;28;20191;-53
2023/08/16 06:41:24;;;;;;;8.43;4.30;;;20.30;99.90;;;;;;5114521;28;20177;-53
2023/08/16 06:43:50;;;;;;;9.50;4.23;;;20.30;99.90;;;;;;5114834;28;20231;-54
2023/08/16 06:46:15;;;;;;;10.07;3.90;;;20.20;99.90;;;;;;5114598;28;20199;-54
2023/08/16 06:48:41;;;;;;;10.17;3.90;;;20.10;99.90;;;;;;5114307;28;20292;-54
2023/08/16 06:51:06;;;;;;;8.20;3.77;;;20.00;79.00;;;;;;5114419;28;20188;-54
2023/08/16 06:53:33;;;;;;;12.63;4.10;;;19.90;92.20;;;;;;5114676;28;20180;-54
2023/08/16 06:55:59;;;;;;;7.23;3.50;;;19.90;99.90;;;;;;5114354;28;20270;-54
2023/08/16 06:58:25;;;;;;;6.87;3.50;;;20.00;99.90;;;;;;5114471;28;20418;-53
2023/08/16 07:00:50;;;;;;;8.33;3.63;;;20.00;99.90;;;;;;5114421;28;20408;-54
2023/08/16 07:03:19;;;;;;;6.97;3.30;;;20.10;99.90;;;;;;5114029;28;20225;-54
2023/08/16 07:05:45;;;;;;;7.00;3.60;;;20.00;99.90;;;;;;5114228;28;20179;-54
2023/08/16 07:08:11;;;;;;;5.73;3.20;;;20.00;99.90;;;;;;5114659;28;20506;-54
2023/08/16 07:10:37;;;;;;;7.73;3.47;;;20.10;99.90;;;;;;5113943;28;20231;-54
2023/08/16 07:13:03;;;;;;;12.10;3.17;;;20.00;99.90;;;;;;5114418;28;20425;-54
2023/08/16 07:15:29;;;;;;;11.03;3.03;;;20.10;99.90;;;;;;5114295;28;20206;-54
2023/08/16 07:17:55;;;;;;;8.20;3.40;;;20.30;99.90;;;;;;5114215;28;20180;-54
2023/08/16 07:20:21;;;;;;;8.07;2.90;;;20.50;99.90;;;;;;5114572;28;20804;-54
2023/08/16 07:22:46;;;;;;;5.27;2.93;;;20.70;60.50;;;;;;5114391;28;20566;-54
2023/08/16 07:25:12;;;;;;;5.20;3.10;;;21.00;99.90;;;;;;5114353;28;20176;-54
2023/08/16 07:27:37;;;;;;;8.03;3.23;;;21.80;39.30;;;;;;5114290;28;20176;-54
2023/08/16 07:30:04;;;;;;;6.03;3.27;;;22.70;1.00;;;;;;5114348;28;20236;-54
2023/08/16 07:32:30;;;;;;;8.63;2.53;;;23.20;1.00;;;;;;5114260;28;20181;-54
2023/08/16 07:34:56;;;;;;;7.50;2.70;;;23.80;1.00;;;;;;5113760;28;20416;-52
2023/08/16 07:37:22;;;;;;;4.20;2.70;;;23.90;1.00;;;;;;5113745;28;20513;-52
2023/08/16 07:39:47;;;;;;;10.17;2.60;;;23.90;1.00;;;;;;5113928;28;20185;-52
2023/08/16 07:42:13;;;;;;;7.07;2.60;;;23.70;1.00;;;;;;5113706;28;20185;-52
2023/08/16 07:44:39;;;;;;;6.20;2.50;;;23.50;1.00;;;;;;5113855;28;20179;-52
2023/08/16 07:47:05;;;;;;;6.70;2.60;;;23.20;1.00;;;;;;5113611;28;20173;-52
2023/08/16 07:49:31;;;;;;;5.47;2.07;;;23.40;1.00;;;;;;5114040;28;20203;-52
2023/08/16 07:51:57;;;;;;;3.53;2.27;;;23.70;1.00;;;;;;5114735;28;20214;-51
2023/08/16 07:54:23;;;;;;;8.60;2.77;;;23.60;1.00;;;;;;5117717;28;20976;-51
2023/08/16 07:56:49;;;;;;;6.80;2.70;;;23.00;1.00;;;;;;5117477;28;20775;-51
2023/08/16 07:59:15;;;;;;;9.60;2.80;;;22.60;1.00;;;;;;5117732;28;20418;-51
2023/08/16 08:01:40;;;;;;;5.07;2.40;;;22.20;1.00;;;;;;5117420;28;20422;-51
2023/08/16 08:04:06;;;;;;;6.70;2.53;;;22.00;1.00;;;;;;5117918;28;20177;-54
2023/08/16 08:06:32;;;;;;;5.70;2.70;;;22.40;1.00;;;;;;5117701;28;20195;-54
2023/08/16 08:08:58;;;;;;;6.70;2.47;;;23.10;1.00;;;;;;5117467;28;20814;-54
2023/08/16 08:11:24;;;;;;;6.17;2.27;;;23.90;1.00;;;;;;5117201;28;20422;-52
2023/08/16 08:13:49;;;;;;;6.00;2.63;;;24.40;1.00;;;;;;5117549;28;20183;-52
2023/08/16 08:16:15;;;;;;;5.00;2.00;;;24.20;1.00;;;;;;5117111;28;20169;-52
2023/08/16 08:18:40;;;;;;;5.73;2.67;;;23.80;1.00;;;;;;5117180;28;20222;-52
2023/08/16 08:21:06;;;;;;;4.77;2.07;;;23.50;1.00;;;;;;5117064;28;20571;-52
2023/08/16 08:23:31;;;;;;;9.10;2.53;;;23.40;1.00;;;;;;5117032;28;20203;-54
2023/08/16 08:25:57;;;;;;;8.47;2.43;;;23.30;1.00;;;;;;5116850;28;20184;-52
2023/08/16 08:28:23;;;;;;;6.90;2.40;;;23.50;1.00;;;;;;5117326;28;20177;-52
2023/08/16 08:30:49;;;;;;;7.13;2.50;;;23.40;1.00;;;;;;5117165;28;20589;-53
2023/08/16 08:33:14;;;;;;;9.50;2.37;;;23.10;1.00;;;;;;5116910;28;20188;-53
2023/08/16 08:35:40;;;;;;;9.43;2.23;;;22.80;1.00;;;;;;5117333;28;20172;-53
2023/08/16 08:38:05;;;;;;;4.80;2.10;;;22.50;1.00;;;;;;5116944;28;20185;-52
2023/08/16 08:40:31;;;;;;;7.80;2.40;;;22.20;1.00;;;;;;5116987;28;20184;-52
2023/08/16 08:42:58;;;;;;;2.63;1.90;;;22.60;1.00;;;;;;5116828;28;20173;-53
2023/08/16 08:45:26;;;;;;;5.87;2.20;;;23.50;1.00;;;;;;5117302;28;20181;-53
2023/08/16 08:47:53;;;;;;;5.67;1.90;;;24.40;1.00;;;;;;5117027;28;20433;-53
2023/08/16 08:50:19;;;;;;;6.40;2.27;;;25.20;1.00;;;;;;5117003;28;20468;-53
2023/08/16 08:52:51;;;;;;;8.10;2.27;;;25.80;1.00;;;;;;5116365;28;20493;-53
2023/08/16 08:55:17;;;;;;;4.23;2.17;;;26.30;1.00;;;;;;5116638;28;20176;-53
2023/08/16 08:57:50;;;;;;;4.60;2.50;;;26.50;1.00;;;;;;5116254;28;20910;-53
2023/08/16 09:00:18;;;;;;;6.13;2.53;;;26.40;1.00;;;;;;5116619;28;20859;-53
2023/08/16 09:02:45;;;;;;;8.03;2.57;;;25.90;1.00;;;;;;5116572;28;20415;-53
2023/08/16 09:05:12;;;;;;;3.43;2.00;;;25.30;1.00;;;;;;5116460;28;20422;-53
2023/08/16 09:07:41;;;;;;;4.27;2.37;;;24.80;1.00;;;;;;5098608;28;20415;-53
2023/08/16 09:10:09;;;;;;;8.30;2.20;;;24.70;1.00;;;;;;5116233;28;20469;-53
2023/08/16 09:12:37;;;;;;;5.57;2.20;;;24.30;1.00;;;;;;5116630;28;20434;-53
2023/08/16 09:15:03;;;;;;;10.17;2.60;;;24.40;1.00;;;;;;5116600;28;20418;-53
2023/08/16 09:17:29;;;;;;;5.73;2.10;;;25.00;1.00;;;;;;5116415;28;20446;-53
2023/08/16 09:19:54;;;;;;;6.37;2.10;;;25.80;1.00;;;;;;5115846;28;20941;-53
2023/08/16 09:22:20;;;;;;;4.77;2.20;;;26.50;1.00;;;;;;5116309;28;20243;-53
2023/08/16 09:24:46;;;;;;;7.50;2.37;;;26.80;1.00;;;;;;5116208;28;20209;-53
2023/08/16 09:27:12;;;;;;;5.77;2.40;;;27.00;1.00;;;;;;5116385;28;20269;-53
2023/08/16 09:29:40;;;;;;;3.33;1.83;;;27.30;1.00;;;;;;5116142;28;20201;-53
2023/08/16 09:32:08;;;;;;;7.40;2.30;;;27.60;1.00;;;;;;5115682;28;20181;-52
2023/08/16 09:34:34;;;;;;;7.73;2.30;;;27.60;1.00;;;;;;5097282;28;20429;-51
2023/08/16 09:37:02;;;;;;;8.73;2.37;;;27.50;1.00;;;;;;5115942;28;20502;-51
2023/08/16 09:39:28;;;;;;;5.03;2.00;;;27.40;1.00;;;;;;5115963;28;20941;-52
2023/08/16 09:41:54;;;;;;;7.33;1.90;;;26.80;1.00;;;;;;5115317;28;20499;-52
2023/08/16 09:44:20;;;;;;;3.43;2.00;;;26.10;1.00;;;;;;5116097;28;20494;-51
2023/08/16 09:46:46;;;;;;;9.13;2.30;;;25.80;1.00;;;;;;5115527;28;20179;-53
2023/08/16 09:49:12;;;;;;;6.97;2.60;;;25.30;1.00;;;;;;5115614;28;20254;-52
2023/08/16 09:51:41;;;;;;;5.90;2.23;;;25.10;1.00;;;;;;5115260;28;20407;-52
2023/08/16 09:54:14;;;;;;;7.47;2.23;;;25.20;1.00;;;;;;5115294;28;20177;-52
2023/08/16 09:56:41;;;;;;;6.73;2.20;;;25.30;1.00;;;;;;5115676;28;20818;-52
2023/08/16 09:59:07;;;;;;;6.77;2.33;;;25.50;1.00;;;;;;5115645;28;20469;-52
2023/08/16 10:01:34;;;;;;;6.10;2.43;;;25.80;1.00;;;;;;5115044;28;20426;-52
2023/08/16 10:04:01;;;;;;;5.27;2.10;;;26.00;1.00;;;;;;5115179;28;20413;-52
2023/08/16 10:06:31;;;;;;;7.23;2.37;;;26.20;1.00;;;;;;5115187;28;20433;-52
2023/08/16 10:08:57;;;;;;;8.30;3.03;;;26.40;1.00;;;;;;5115101;28;20455;-52
2023/08/16 10:11:23;;;;;;;3.30;1.73;;;26.70;1.00;;;;;;5115352;28;20403;-52
2023/08/16 10:13:49;;;;;;;6.20;1.60;;;26.90;1.00;;;;;;5114788;28;20260;-53
2023/08/16 10:16:16;;;;;;;4.47;2.10;;;27.20;1.00;;;;;;5114148;28;20415;-52
2023/08/16 10:18:43;;;;;;;4.80;2.10;;;27.40;1.00;;;;;;5114858;28;20437;-53
2023/08/16 10:21:16;;;;;;;7.17;2.13;;;27.70;1.00;;;;;;5114744;28;20523;-54
2023/08/16 10:23:43;;;;;;;3.87;1.73;;;27.90;1.00;;;;;;5114801;28;20411;-53
2023/08/16 10:26:13;;;;;;;8.23;2.40;;;28.00;1.00;;;;;;5114789;28;20921;-54
2023/08/16 10:28:46;;;;;;;9.53;2.10;;;28.10;1.00;;;;;;5114812;28;20727;-54
2023/08/16 10:31:14;;;;;;;5.23;2.13;;;28.10;1.00;;;;;;5114764;28;20501;-54
2023/08/16 10:33:44;;;;;;;6.60;1.70;;;28.20;1.00;;;;;;5114768;28;20418;-54
2023/08/16 10:36:11;;;;;;;3.57;1.70;;;28.60;1.00;;;;;;5114913;28;20883;-54
2023/08/16 10:38:37;;;;;;;1.90;1.70;;;28.80;1.00;;;;;;5115088;28;20425;-54
2023/08/16 10:41:13;;;;;;;3.17;1.80;;;28.80;1.00;;;;;;5114801;28;20505;-54
2023/08/16 10:43:44;;;;;;;2.53;1.70;;;28.70;1.00;;;;;;5114957;28;20547;-54
2023/08/16 10:46:09;;;;;;;5.97;1.80;;;28.70;1.00;;;;;;5114860;28;20403;-54
2023/08/16 10:48:36;;;;;;;3.77;1.70;;;29.10;1.00;;;;;;5114373;28;20411;-54
2023/08/16 10:51:07;;;;;;;4.27;2.00;;;29.30;1.00;;;;;;5114101;28;20191;-55
2023/08/16 10:53:34;;;;;;;8.10;1.73;;;29.40;1.00;;;;;;5114400;28;20423;-54
2023/08/16 10:56:09;;;;;;;3.47;1.50;;;29.00;1.00;;;;;;5114254;28;20413;-54
2023/08/16 10:58:52;;;;;;;5.30;1.90;;;29.20;1.00;;;;;;5114255;28;20917;-53
2023/08/16 11:01:20;;;;;;;3.40;1.77;;;29.80;1.00;;;;;;5114560;28;20402;-53
2023/08/16 11:03:47;;;;;;;6.73;1.63;;;30.10;1.00;;;;;;5113885;28;20422;-54
2023/08/16 11:06:14;;;;;;;5.70;2.00;;;30.40;1.00;;;;;;5114090;28;20932;-54
2023/08/16 11:08:44;;;;;;;6.93;1.70;;;30.50;1.00;;;;;;5114241;28;20422;-54
2023/08/16 11:11:12;;;;;;;4.40;1.90;;;30.70;1.00;;;;;;5114614;28;20406;-54
2023/08/16 11:13:40;;;;;;;5.13;1.80;;;31.10;1.00;;;;;;5114231;28;20467;-55
2023/08/16 11:16:09;;;;;;;4.43;2.13;;;31.10;1.00;;;;;;5113864;28;20929;-55
2023/08/16 11:18:37;;;;;;;3.87;1.83;;;31.00;1.00;;;;;;5113942;28;20446;-54
2023/08/16 11:21:03;;;;;;;5.00;1.50;;;30.90;1.00;;;;;;5114036;28;20487;-54
2023/08/16 11:23:33;;;;;;;3.50;1.40;;;31.20;1.00;;;;;;5114688;28;20473;-54
2023/08/16 11:26:02;;;;;;;3.93;1.50;;;31.60;1.00;;;;;;5114042;28;20423;-54
2023/08/16 11:28:28;;;;;;;2.37;1.33;;;31.90;1.00;;;;;;5117268;28;20918;-54
2023/08/16 11:30:58;;;;;;;3.70;1.30;;;32.00;1.00;;;;;;5118306;28;20848;-54
2023/08/16 11:33:29;;;;;;;5.93;2.30;;;32.10;1.00;;;;;;5117876;28;20906;-54
2023/08/16 11:35:54;;;;;;;2.00;1.40;;;31.80;1.00;;;;;;5117904;28;20890;-54
2023/08/16 11:38:23;;;;;;;4.60;1.60;;;31.50;1.00;;;;;;5118102;28;20459;-55
2023/08/16 11:40:48;;;;;;;3.67;1.60;;;31.60;1.00;;;;;;5117924;28;20592;-55
2023/08/16 11:43:14;;;;;;;2.50;1.47;;;31.80;1.00;;;;;;5117293;28;20410;-55
2023/08/16 11:45:40;;;;;;;4.87;1.60;;;31.80;1.00;;;;;;5118017;28;20176;-55
2023/08/16 11:48:06;;;;;;;4.53;1.70;;;31.90;1.00;;;;;;5117981;28;20172;-55
2023/08/16 11:50:34;;;;;;;2.90;1.53;;;31.50;1.00;;;;;;5117690;28;20711;-55
2023/08/16 11:53:04;;;;;;;5.50;1.47;;;31.00;1.00;;;;;;5117835;28;20216;-55
2023/08/16 11:55:30;;;;;;;5.57;1.57;;;30.30;1.00;;;;;;5117738;28;20422;-54
2023/08/16 11:58:03;;;;;;;7.10;1.77;;;29.60;1.00;;;;;;5117858;28;20407;-51
2023/08/16 12:00:29;;;;;;;5.27;1.70;;;30.00;1.00;;;;;;5117780;28;20230;-52
2023/08/16 12:02:56;;;;;;;5.40;1.90;;;30.70;1.00;;;;;;5117772;28;20471;-54
2023/08/16 12:05:23;;;;;;;5.83;1.87;;;31.60;1.00;;;;;;5117616;28;20468;-54
2023/08/16 12:07:53;;;;;;;3.20;1.73;;;31.80;1.00;;;;;;5117222;28;20419;-55
2023/08/16 12:10:26;;;;;;;7.63;2.00;;;31.30;1.00;;;;;;5117518;28;20462;-55
2023/08/16 12:12:54;;;;;;;7.73;2.00;;;29.80;1.00;;;;;;5117419;28;21067;-54
2023/08/16 12:15:24;;;;;;;3.77;1.90;;;29.10;1.00;;;;;;5117271;28;20475;-54
2023/08/16 12:17:51;;;;;;;4.97;1.63;;;29.80;1.00;;;;;;5117351;28;20910;-55
2023/08/16 12:20:16;;;;;;;6.50;2.03;;;30.60;1.00;;;;;;5117723;28;20422;-54
2023/08/16 12:22:44;;;;;;;5.37;1.80;;;31.30;1.00;;;;;;5116783;28;20545;-55
2023/08/16 12:25:10;;;;;;;3.03;1.70;;;31.60;1.00;;;;;;5117460;28;20176;-55
2023/08/16 12:27:35;;;;;;;4.40;1.80;;;31.20;1.00;;;;;;5117341;28;20875;-55
2023/08/16 12:30:01;;;;;;;4.20;1.87;;;30.70;1.00;;;;;;5116508;28;20205;-54
2023/08/16 12:32:26;;;;;;;3.00;1.70;;;30.60;1.00;;;;;;5116880;28;20188;-54
2023/08/16 12:34:52;;;;;;;3.07;1.60;;;30.30;1.00;;;;;;5116863;28;20180;-54
2023/08/16 12:37:18;;;;;;;7.30;1.60;;;30.00;1.00;;;;;;5116731;28;20173;-53
2023/08/16 12:39:43;;;;;;;5.93;1.60;;;30.10;1.00;;;;;;5116181;28;20233;-54
2023/08/16 12:42:09;;;;;;;2.60;1.50;;;30.30;1.00;;;;;;5117313;28;20181;-54